createdAt,value
2022-09-13T00:00:39.720Z,1007.88
2022-09-13T00:01:39.635Z,1007.89
2022-09-13T00:02:39.638Z,1007.86
2022-09-13T00:03:39.602Z,1007.86
2022-09-13T00:04:39.614Z,1007.85
2022-09-13T00:05:39.578Z,1007.86
2022-09-13T00:06:39.833Z,1007.85
2022-09-13T00:07:39.557Z,1007.87
2022-09-13T00:08:39.534Z,1007.86
2022-09-13T00:09:39.547Z,1007.81
2022-09-13T00:10:39.510Z,1007.86
2022-09-13T00:11:39.519Z,1007.83
2022-09-13T00:12:39.570Z,1007.83
2022-09-13T00:13:39.480Z,1007.78
2022-09-13T00:14:39.450Z,1007.73
2022-09-13T00:15:39.451Z,1007.76
2022-09-13T00:16:39.538Z,1007.69
2022-09-13T00:17:39.444Z,1007.72
2022-09-13T00:18:39.829Z,1007.67
2022-09-13T00:19:39.413Z,1007.68
2022-09-13T00:20:39.407Z,1007.68
2022-09-13T00:21:40.561Z,1007.67
2022-09-13T00:22:39.382Z,1007.68
2022-09-13T00:23:39.387Z,1007.71
2022-09-13T00:24:40.681Z,1007.67
2022-09-13T00:25:39.334Z,1007.67
2022-09-13T00:26:39.789Z,1007.65
2022-09-13T00:27:40.810Z,1007.65
2022-09-13T00:28:40.224Z,1007.62
2022-09-13T00:29:39.328Z,1007.58
2022-09-13T00:30:39.305Z,1007.54
2022-09-13T00:31:39.326Z,1007.51
2022-09-13T00:32:39.285Z,1007.43
2022-09-13T00:33:39.987Z,1007.45
2022-09-13T00:34:39.249Z,1007.49
2022-09-13T00:35:39.231Z,1007.49
2022-09-13T00:36:39.250Z,1007.46
2022-09-13T00:37:39.226Z,1007.45
2022-09-13T00:38:39.232Z,1007.46
2022-09-13T00:39:39.320Z,1007.47
2022-09-13T00:40:39.191Z,1007.40
2022-09-13T00:41:39.204Z,1007.36
2022-09-13T00:42:39.245Z,1007.38
2022-09-13T00:43:39.158Z,1007.33
2022-09-13T00:44:39.156Z,1007.30
2022-09-13T00:45:39.185Z,1007.25
2022-09-13T00:46:46.143Z,1007.24
2022-09-13T00:47:39.114Z,1007.23
2022-09-13T00:48:39.094Z,1007.22
2022-09-13T00:49:39.105Z,1007.19
2022-09-13T00:50:39.059Z,1007.18
2022-09-13T00:51:39.050Z,1007.11
2022-09-13T00:52:39.039Z,1007.10
2022-09-13T00:53:39.030Z,1007.08
2022-09-13T00:54:39.038Z,1007.03
2022-09-13T00:55:39.358Z,1006.99
2022-09-13T00:56:39.038Z,1007.00
2022-09-13T00:57:39.003Z,1006.98
2022-09-13T00:58:38.973Z,1006.98
2022-09-13T00:59:39.295Z,1006.96
2022-09-13T01:00:39.025Z,1006.96
2022-09-13T01:01:38.965Z,1006.97
2022-09-13T01:02:38.929Z,1006.88
2022-09-13T01:03:38.934Z,1006.85
2022-09-13T01:04:38.910Z,1006.89
2022-09-13T01:05:38.900Z,1006.90
2022-09-13T01:06:38.910Z,1006.86
2022-09-13T01:07:38.908Z,1006.87
2022-09-13T01:08:38.870Z,1006.91
2022-09-13T01:09:39.029Z,1006.85
2022-09-13T01:10:38.899Z,1006.83
2022-09-13T01:11:38.862Z,1006.85
2022-09-13T01:12:38.840Z,1006.85
2022-09-13T01:13:38.970Z,1006.88
2022-09-13T01:14:38.801Z,1006.85
2022-09-13T01:15:38.802Z,1006.86
2022-09-13T01:16:38.847Z,1006.80
2022-09-13T01:17:38.768Z,1006.78
2022-09-13T01:18:38.772Z,1006.78
2022-09-13T01:19:38.761Z,1006.79
2022-09-13T01:20:38.739Z,1006.81
2022-09-13T01:21:38.752Z,1006.78
2022-09-13T01:22:38.734Z,1006.81
2022-09-13T01:23:38.722Z,1006.79
2022-09-13T01:24:38.882Z,1006.77
2022-09-13T01:25:38.692Z,1006.80
2022-09-13T01:26:38.679Z,1006.74
2022-09-13T01:27:38.710Z,1006.76
2022-09-13T01:28:38.671Z,1006.74
2022-09-13T01:29:38.662Z,1006.74
2022-09-13T01:30:38.647Z,1006.73
2022-09-13T01:31:38.724Z,1006.70
2022-09-13T01:32:38.622Z,1006.67
2022-09-13T01:33:38.612Z,1006.68
2022-09-13T01:34:38.576Z,1006.67
2022-09-13T01:35:38.588Z,1006.66
2022-09-13T01:36:38.570Z,1006.65
2022-09-13T01:37:38.562Z,1006.67
2022-09-13T01:38:38.554Z,1006.70
2022-09-13T01:39:38.525Z,1006.68
2022-09-13T01:40:38.533Z,1006.70
2022-09-13T01:41:38.517Z,1006.74
2022-09-13T01:42:38.514Z,1006.69
2022-09-13T01:43:38.719Z,1006.73
2022-09-13T01:44:38.837Z,1006.75
2022-09-13T01:45:38.642Z,1006.78
2022-09-13T01:46:38.453Z,1006.76
2022-09-13T01:47:38.437Z,1006.76
2022-09-13T01:48:38.439Z,1006.74
2022-09-13T01:49:38.426Z,1006.72
2022-09-13T01:50:38.417Z,1006.71
2022-09-13T01:51:38.417Z,1006.66
2022-09-13T01:52:38.392Z,1006.62
2022-09-13T01:53:38.383Z,1006.56
2022-09-13T01:54:38.374Z,1006.52
2022-09-13T01:55:38.368Z,1006.50
2022-09-13T01:56:38.345Z,1006.54
2022-09-13T01:57:38.328Z,1006.53
2022-09-13T01:58:38.328Z,1006.54
2022-09-13T01:59:38.307Z,1006.50
2022-09-13T02:00:38.308Z,1006.48
2022-09-13T02:01:38.286Z,1006.43
2022-09-13T02:02:38.278Z,1006.43
2022-09-13T02:03:38.281Z,1006.38
2022-09-13T02:04:38.247Z,1006.42
2022-09-13T02:05:38.251Z,1006.38
2022-09-13T02:06:38.248Z,1006.39
2022-09-13T02:07:38.252Z,1006.36
2022-09-13T02:08:38.230Z,1006.35
2022-09-13T02:09:38.200Z,1006.35
2022-09-13T02:10:38.204Z,1006.35
2022-09-13T02:11:38.194Z,1006.34
2022-09-13T02:12:38.179Z,1006.33
2022-09-13T02:13:38.156Z,1006.31
2022-09-13T02:14:38.153Z,1006.27
2022-09-13T02:15:38.139Z,1006.24
2022-09-13T02:16:38.231Z,1006.25
2022-09-13T02:17:38.120Z,1006.25
2022-09-13T02:18:38.117Z,1006.25
2022-09-13T02:19:38.090Z,1006.25
2022-09-13T02:20:38.097Z,1006.21
2022-09-13T02:21:38.085Z,1006.19
2022-09-13T02:22:38.056Z,1006.19
2022-09-13T02:23:38.117Z,1006.18
2022-09-13T02:24:38.063Z,1006.19
2022-09-13T02:25:38.025Z,1006.15
2022-09-13T02:26:37.996Z,1006.20
2022-09-13T02:27:38.008Z,1006.20
2022-09-13T02:28:37.975Z,1006.18
2022-09-13T02:29:37.987Z,1006.18
2022-09-13T02:30:37.963Z,1006.19
2022-09-13T02:31:37.974Z,1006.22
2022-09-13T02:32:37.941Z,1006.19
2022-09-13T02:33:38.011Z,1006.12
2022-09-13T02:34:37.940Z,1006.16
2022-09-13T02:35:37.930Z,1006.15
2022-09-13T02:36:37.916Z,1006.15
2022-09-13T02:37:37.887Z,1006.12
2022-09-13T02:38:37.899Z,1006.11
2022-09-13T02:39:37.879Z,1006.13
2022-09-13T02:40:37.873Z,1006.11
2022-09-13T02:41:37.836Z,1006.09
2022-09-13T02:42:37.859Z,1006.06
2022-09-13T02:43:37.827Z,1006.08
2022-09-13T02:44:37.818Z,1006.08
2022-09-13T02:45:37.845Z,1006.03
2022-09-13T02:46:37.785Z,1006.03
2022-09-13T02:47:37.782Z,1006.03
2022-09-13T02:48:37.757Z,1005.98
2022-09-13T02:49:37.748Z,1005.94
2022-09-13T02:50:37.749Z,1005.92
2022-09-13T02:51:37.735Z,1005.94
2022-09-13T02:52:37.723Z,1005.91
2022-09-13T02:53:37.705Z,1005.90
2022-09-13T02:54:37.726Z,1005.82
2022-09-13T02:55:37.698Z,1005.80
2022-09-13T02:56:37.713Z,1005.74
2022-09-13T02:57:37.678Z,1005.72
2022-09-13T02:58:37.694Z,1005.75
2022-09-13T02:59:37.645Z,1005.75
2022-09-13T03:00:37.651Z,1005.76
2022-09-13T03:01:37.677Z,1005.74
2022-09-13T03:02:37.681Z,1005.72
2022-09-13T03:03:37.610Z,1005.73
2022-09-13T03:04:37.585Z,1005.73
2022-09-13T03:05:37.592Z,1005.71
2022-09-13T03:06:37.590Z,1005.70
2022-09-13T03:07:37.566Z,1005.69
2022-09-13T03:08:37.605Z,1005.71
2022-09-13T03:09:37.535Z,1005.75
2022-09-13T03:10:37.537Z,1005.74
2022-09-13T03:11:37.517Z,1005.72
2022-09-13T03:12:37.527Z,1005.69
2022-09-13T03:13:37.489Z,1005.62
2022-09-13T03:14:37.495Z,1005.58
2022-09-13T03:15:37.464Z,1005.60
2022-09-13T03:16:37.531Z,1005.51
2022-09-13T03:17:37.452Z,1005.47
2022-09-13T03:18:37.507Z,1005.46
2022-09-13T03:19:37.427Z,1005.44
2022-09-13T03:20:37.438Z,1005.42
2022-09-13T03:21:37.403Z,1005.40
2022-09-13T03:22:37.415Z,1005.36
2022-09-13T03:23:37.738Z,1005.36
2022-09-13T03:24:37.421Z,1005.36
2022-09-13T03:25:37.352Z,1005.30
2022-09-13T03:26:37.341Z,1005.22
2022-09-13T03:27:37.344Z,1005.20
2022-09-13T03:28:37.398Z,1005.21
2022-09-13T03:29:37.323Z,1005.16
2022-09-13T03:30:37.333Z,1005.18
2022-09-13T03:31:37.365Z,1005.17
2022-09-13T03:32:37.301Z,1005.13
2022-09-13T03:33:37.274Z,1005.16
2022-09-13T03:34:37.262Z,1005.15
2022-09-13T03:35:37.246Z,1005.18
2022-09-13T03:36:37.266Z,1005.20
2022-09-13T03:37:37.214Z,1005.18
2022-09-13T03:38:37.299Z,1005.13
2022-09-13T03:39:37.194Z,1005.17
2022-09-13T03:40:37.204Z,1005.20
2022-09-13T03:41:37.176Z,1005.20
2022-09-13T03:42:37.174Z,1005.24
2022-09-13T03:43:37.151Z,1005.20
2022-09-13T03:44:37.144Z,1005.21
2022-09-13T03:45:37.172Z,1005.15
2022-09-13T03:46:37.157Z,1005.18
2022-09-13T03:47:37.101Z,1005.20
2022-09-13T03:48:37.148Z,1005.21
2022-09-13T03:49:37.091Z,1005.23
2022-09-13T03:50:37.083Z,1005.24
2022-09-13T03:51:37.084Z,1005.23
2022-09-13T03:52:37.082Z,1005.28
2022-09-13T03:53:37.066Z,1005.28
2022-09-13T03:54:37.056Z,1005.28
2022-09-13T03:55:37.025Z,1005.28
2022-09-13T03:56:37.011Z,1005.29
2022-09-13T03:57:37.011Z,1005.32
2022-09-13T03:58:37.085Z,1005.30
2022-09-13T03:59:36.996Z,1005.27
2022-09-13T04:00:36.962Z,1005.31
2022-09-13T04:01:36.975Z,1005.29
2022-09-13T04:02:37.017Z,1005.25
2022-09-13T04:03:36.964Z,1005.26
2022-09-13T04:04:36.965Z,1005.24
2022-09-13T04:05:36.901Z,1005.17
2022-09-13T04:06:36.911Z,1005.15
2022-09-13T04:07:36.919Z,1005.16
2022-09-13T04:08:36.918Z,1005.14
2022-09-13T04:09:36.877Z,1005.12
2022-09-13T04:10:36.861Z,1005.05
2022-09-13T04:11:36.868Z,1005.04
2022-09-13T04:12:36.876Z,1005.06
2022-09-13T04:13:36.825Z,1005.02
2022-09-13T04:14:36.821Z,1005.00
2022-09-13T04:15:36.837Z,1005.02
2022-09-13T04:16:36.840Z,1004.96
2022-09-13T04:17:36.784Z,1004.94
2022-09-13T04:18:36.781Z,1004.93
2022-09-13T04:19:36.778Z,1004.94
2022-09-13T04:20:36.767Z,1004.96
2022-09-13T04:21:36.762Z,1004.94
2022-09-13T04:22:36.740Z,1004.93
2022-09-13T04:23:36.774Z,1004.90
2022-09-13T04:24:36.715Z,1004.85
2022-09-13T04:25:36.714Z,1004.80
2022-09-13T04:26:36.705Z,1004.80
2022-09-13T04:27:36.683Z,1004.81
2022-09-13T04:28:36.668Z,1004.88
2022-09-13T04:29:36.673Z,1004.85
2022-09-13T04:30:40.698Z,1004.85
2022-09-13T04:31:37.679Z,1004.89
2022-09-13T04:32:36.620Z,1004.89
2022-09-13T04:33:36.600Z,1004.88
2022-09-13T04:34:36.590Z,1004.85
2022-09-13T04:35:36.602Z,1004.82
2022-09-13T04:36:36.600Z,1004.80
2022-09-13T04:37:36.572Z,1004.80
2022-09-13T04:38:36.572Z,1004.79
2022-09-13T04:39:36.574Z,1004.74
2022-09-13T04:40:36.555Z,1004.74
2022-09-13T04:41:36.529Z,1004.72
2022-09-13T04:42:36.533Z,1004.78
2022-09-13T04:43:36.517Z,1004.79
2022-09-13T04:44:36.479Z,1004.74
2022-09-13T04:45:36.491Z,1004.72
2022-09-13T04:46:36.463Z,1004.75
2022-09-13T04:47:36.471Z,1004.74
2022-09-13T04:48:36.457Z,1004.68
2022-09-13T04:49:36.432Z,1004.71
2022-09-13T04:50:36.441Z,1004.67
2022-09-13T04:51:36.423Z,1004.66
2022-09-13T04:52:36.417Z,1004.59
2022-09-13T04:53:36.402Z,1004.62
2022-09-13T04:54:36.370Z,1004.62
2022-09-13T04:55:36.358Z,1004.57
2022-09-13T04:56:36.364Z,1004.60
2022-09-13T04:57:36.350Z,1004.57
2022-09-13T04:58:36.343Z,1004.59
2022-09-13T04:59:36.318Z,1004.51
2022-09-13T05:00:36.324Z,1004.53
2022-09-13T05:01:36.337Z,1004.55
2022-09-13T05:02:36.419Z,1004.48
2022-09-13T05:03:36.279Z,1004.52
2022-09-13T05:04:36.257Z,1004.49
2022-09-13T05:05:36.264Z,1004.45
2022-09-13T05:06:36.242Z,1004.49
2022-09-13T05:07:36.218Z,1004.48
2022-09-13T05:08:36.228Z,1004.46
2022-09-13T05:09:36.208Z,1004.48
2022-09-13T05:10:36.212Z,1004.47
2022-09-13T05:11:36.199Z,1004.44
2022-09-13T05:12:36.190Z,1004.38
2022-09-13T05:13:36.170Z,1004.37
2022-09-13T05:14:36.158Z,1004.43
2022-09-13T05:15:36.168Z,1004.27
2022-09-13T05:16:36.134Z,1004.26
2022-09-13T05:17:36.107Z,1004.24
2022-09-13T05:18:36.131Z,1004.28
2022-09-13T05:19:36.091Z,1004.28
2022-09-13T05:20:36.104Z,1004.25
2022-09-13T05:21:36.102Z,1004.30
2022-09-13T05:22:36.074Z,1004.40
2022-09-13T05:23:36.058Z,1004.33
2022-09-13T05:24:36.045Z,1004.39
2022-09-13T05:25:36.076Z,1004.42
2022-09-13T05:26:36.035Z,1004.45
2022-09-13T05:27:36.015Z,1004.46
2022-09-13T05:28:36.001Z,1004.45
2022-09-13T05:29:35.997Z,1004.51
2022-09-13T05:30:38.354Z,1004.40
2022-09-13T05:31:37.039Z,1004.42
2022-09-13T05:32:35.979Z,1004.40
2022-09-13T05:33:35.963Z,1004.31
2022-09-13T05:34:35.961Z,1004.26
2022-09-13T05:35:35.934Z,1004.29
2022-09-13T05:36:35.934Z,1004.26
2022-09-13T05:37:35.940Z,1004.26
2022-09-13T05:38:35.910Z,1004.28
2022-09-13T05:39:54.055Z,1004.19
2022-09-13T05:40:36.990Z,1004.18
2022-09-13T05:41:35.859Z,1004.18
2022-09-13T05:42:35.866Z,1004.12
2022-09-13T05:43:35.854Z,1004.01
2022-09-13T05:44:35.841Z,1003.97
2022-09-13T05:45:35.834Z,1003.99
2022-09-13T05:46:35.876Z,1004.02
2022-09-13T05:47:35.850Z,1004.01
2022-09-13T05:48:35.833Z,1004.04
2022-09-13T05:49:45.953Z,1004.01
2022-09-13T05:50:57.178Z,1004.03
2022-09-13T05:51:36.747Z,1004.05
2022-09-13T05:52:35.756Z,1004.06
2022-09-13T05:53:35.729Z,1004.07
2022-09-13T05:54:35.750Z,1004.09
2022-09-13T05:55:35.720Z,1004.10
2022-09-13T05:56:35.721Z,1004.09
2022-09-13T05:57:35.694Z,1004.04
2022-09-13T05:58:35.726Z,1004.02
2022-09-13T05:59:35.679Z,1004.05
2022-09-13T06:00:35.698Z,1003.99
2022-09-13T06:01:35.730Z,1004.01
2022-09-13T06:02:35.704Z,1003.98
2022-09-13T06:03:35.629Z,1003.98
2022-09-13T06:04:35.642Z,1004.00
2022-09-13T06:05:35.617Z,1003.98
2022-09-13T06:06:35.614Z,1003.99
2022-09-13T06:07:35.586Z,1004.01
2022-09-13T06:08:35.591Z,1004.02
2022-09-13T06:09:35.571Z,1004.02
2022-09-13T06:10:35.556Z,1004.02
2022-09-13T06:11:35.545Z,1004.07
2022-09-13T06:12:35.550Z,1004.12
2022-09-13T06:13:35.515Z,1004.16
2022-09-13T06:14:35.526Z,1004.21
2022-09-13T06:15:37.961Z,1004.28
2022-09-13T06:16:35.529Z,1004.37
2022-09-13T06:17:35.476Z,1004.42
2022-09-13T06:18:35.456Z,1004.44
2022-09-13T06:19:35.460Z,1004.49
2022-09-13T06:20:35.457Z,1004.50
2022-09-13T06:21:35.433Z,1004.46
2022-09-13T06:22:35.440Z,1004.47
2022-09-13T06:23:35.418Z,1004.46
2022-09-13T06:24:35.395Z,1004.40
2022-09-13T06:25:35.400Z,1004.40
2022-09-13T06:26:35.385Z,1004.44
2022-09-13T06:27:35.404Z,1004.47
2022-09-13T06:28:37.407Z,1004.48
2022-09-13T06:29:35.355Z,1004.50
2022-09-13T06:30:35.335Z,1004.46
2022-09-13T06:31:35.362Z,1004.43
2022-09-13T06:32:35.328Z,1004.43
2022-09-13T06:33:35.296Z,1004.46
2022-09-13T06:34:35.293Z,1004.44
2022-09-13T06:35:35.292Z,1004.43
2022-09-13T06:36:35.264Z,1004.43
2022-09-13T06:37:35.318Z,1004.43
2022-09-13T06:38:35.245Z,1004.47
2022-09-13T06:39:35.240Z,1004.50
2022-09-13T06:40:35.257Z,1004.48
2022-09-13T06:41:35.227Z,1004.52
2022-09-13T06:42:35.232Z,1004.54
2022-09-13T06:43:35.197Z,1004.60
2022-09-13T06:44:35.188Z,1004.61
2022-09-13T06:45:35.162Z,1004.57
2022-09-13T06:46:35.222Z,1004.58
2022-09-13T06:47:42.683Z,1004.58
2022-09-13T06:48:35.145Z,1004.61
2022-09-13T06:49:35.126Z,1004.59
2022-09-13T06:50:35.143Z,1004.57
2022-09-13T06:51:35.125Z,1004.60
2022-09-13T06:52:35.120Z,1004.55
2022-09-13T06:53:35.136Z,1004.60
2022-09-13T06:54:35.088Z,1004.54
2022-09-13T06:55:35.065Z,1004.55
2022-09-13T06:56:35.101Z,1004.55
2022-09-13T06:57:35.504Z,1004.52
2022-09-13T06:58:35.083Z,1004.48
2022-09-13T06:59:35.025Z,1004.46
2022-09-13T07:00:35.036Z,1004.44
2022-09-13T07:01:35.096Z,1004.46
2022-09-13T07:02:35.053Z,1004.42
2022-09-13T07:03:34.988Z,1004.38
2022-09-13T07:04:34.976Z,1004.39
2022-09-13T07:05:34.975Z,1004.39
2022-09-13T07:06:34.974Z,1004.33
2022-09-13T07:07:34.941Z,1004.38
2022-09-13T07:08:34.959Z,1004.42
2022-09-13T07:09:34.944Z,1004.42
2022-09-13T07:10:34.926Z,1004.39
2022-09-13T07:11:34.907Z,1004.36
2022-09-13T07:12:34.885Z,1004.30
2022-09-13T07:13:34.860Z,1004.24
2022-09-13T07:14:34.866Z,1004.17
2022-09-13T07:15:34.895Z,1004.12
2022-09-13T07:16:34.820Z,1004.10
2022-09-13T07:17:34.869Z,1004.09
2022-09-13T07:18:34.817Z,1004.13
2022-09-13T07:19:34.820Z,1004.10
2022-09-13T07:20:34.802Z,1004.06
2022-09-13T07:21:34.773Z,1004.04
2022-09-13T07:22:34.774Z,1004.04
2022-09-13T07:23:34.774Z,1004.05
2022-09-13T07:24:34.749Z,1004.05
2022-09-13T07:25:34.733Z,1004.07
2022-09-13T07:26:34.720Z,1004.04
2022-09-13T07:27:34.690Z,1004.05
2022-09-13T07:28:35.424Z,1004.02
2022-09-13T07:29:34.728Z,1004.04
2022-09-13T07:30:34.670Z,1004.03
2022-09-13T07:31:34.695Z,1004.04
2022-09-13T07:32:34.693Z,1004.03
2022-09-13T07:33:34.655Z,1004.05
2022-09-13T07:34:34.654Z,1004.08
2022-09-13T07:35:34.652Z,1004.06
2022-09-13T07:36:34.606Z,1004.07
2022-09-13T07:37:34.609Z,1004.06
2022-09-13T07:38:34.599Z,1004.07
2022-09-13T07:39:34.585Z,1004.10
2022-09-13T07:40:34.568Z,1004.07
2022-09-13T07:41:34.562Z,1004.06
2022-09-13T07:42:34.593Z,1004.01
2022-09-13T07:43:34.531Z,1004.01
2022-09-13T07:44:34.542Z,1003.97
2022-09-13T07:45:34.506Z,1004.00
2022-09-13T07:46:34.541Z,1003.97
2022-09-13T07:47:34.480Z,1004.02
2022-09-13T07:48:34.492Z,1004.06
2022-09-13T07:49:34.470Z,1004.07
2022-09-13T07:50:34.460Z,1004.04
2022-09-13T07:51:34.474Z,1004.07
2022-09-13T07:52:34.472Z,1004.08
2022-09-13T07:53:34.428Z,1004.06
2022-09-13T07:54:34.409Z,1004.01
2022-09-13T07:55:34.422Z,1004.08
2022-09-13T07:56:34.388Z,1004.06
2022-09-13T07:57:34.383Z,1004.02
2022-09-13T07:58:34.359Z,1003.99
2022-09-13T07:59:34.362Z,1003.93
2022-09-13T08:00:34.338Z,1003.95
2022-09-13T08:01:34.435Z,1003.95
2022-09-13T08:02:34.376Z,1003.98
2022-09-13T08:03:34.307Z,1003.91
2022-09-13T08:04:36.423Z,1003.88
2022-09-13T08:05:34.321Z,1003.85
2022-09-13T08:06:34.279Z,1003.92
2022-09-13T08:07:34.280Z,1004.00
2022-09-13T08:08:34.257Z,1004.04
2022-09-13T08:09:34.254Z,1004.04
2022-09-13T08:10:34.240Z,1003.95
2022-09-13T08:11:34.239Z,1003.98
2022-09-13T08:12:34.211Z,1003.94
2022-09-13T08:13:34.221Z,1003.93
2022-09-13T08:14:34.190Z,1003.94
2022-09-13T08:15:34.236Z,1003.87
2022-09-13T08:16:34.175Z,1003.87
2022-09-13T08:17:34.146Z,1003.89
2022-09-13T08:18:34.176Z,1003.81
2022-09-13T08:19:34.152Z,1003.79
2022-09-13T08:20:34.115Z,1003.79
2022-09-13T08:21:34.131Z,1003.79
2022-09-13T08:22:34.087Z,1003.78
2022-09-13T08:23:34.104Z,1003.72
2022-09-13T08:24:34.077Z,1003.74
2022-09-13T08:25:34.135Z,1003.76
2022-09-13T08:26:34.070Z,1003.82
2022-09-13T08:27:34.062Z,1003.82
2022-09-13T08:28:34.081Z,1003.83
2022-09-13T08:29:34.023Z,1003.85
2022-09-13T08:30:34.027Z,1003.86
2022-09-13T08:31:34.015Z,1003.76
2022-09-13T08:32:33.980Z,1003.80
2022-09-13T08:33:33.980Z,1003.78
2022-09-13T08:34:33.989Z,1003.79
2022-09-13T08:35:33.955Z,1003.81
2022-09-13T08:36:33.939Z,1003.80
2022-09-13T08:37:33.929Z,1003.80
2022-09-13T08:38:33.939Z,1003.80
2022-09-13T08:39:33.938Z,1003.77
2022-09-13T08:40:33.904Z,1003.81
2022-09-13T08:41:33.926Z,1003.83
2022-09-13T08:42:33.952Z,1003.79
2022-09-13T08:43:33.889Z,1003.81
2022-09-13T08:44:33.874Z,1003.86
2022-09-13T08:45:33.870Z,1003.85
2022-09-13T08:46:33.900Z,1003.86
2022-09-13T08:47:33.822Z,1003.93
2022-09-13T08:48:33.865Z,1003.90
2022-09-13T08:49:33.832Z,1003.88
2022-09-13T08:50:33.785Z,1003.88
2022-09-13T08:51:33.799Z,1003.83
2022-09-13T08:52:33.791Z,1003.85
2022-09-13T08:53:33.769Z,1003.87
2022-09-13T08:54:33.774Z,1003.89
2022-09-13T08:55:33.734Z,1003.85
2022-09-13T08:56:33.773Z,1003.87
2022-09-13T08:57:33.704Z,1003.85
2022-09-13T08:58:33.763Z,1003.85
2022-09-13T08:59:33.719Z,1003.87
2022-09-13T09:00:33.679Z,1003.91
2022-09-13T09:01:33.727Z,1003.84
2022-09-13T09:02:33.769Z,1003.85
2022-09-13T09:03:33.643Z,1003.87
2022-09-13T09:04:33.678Z,1003.85
2022-09-13T09:05:33.649Z,1003.85
2022-09-13T09:06:33.684Z,1003.87
2022-09-13T09:07:33.650Z,1003.83
2022-09-13T09:08:33.587Z,1003.81
2022-09-13T09:09:33.598Z,1003.77
2022-09-13T09:10:33.576Z,1003.82
2022-09-13T09:11:33.556Z,1003.79
2022-09-13T09:12:33.554Z,1003.78
2022-09-13T09:13:33.533Z,1003.74
2022-09-13T09:14:33.554Z,1003.69
2022-09-13T09:15:33.562Z,1003.70
2022-09-13T09:16:33.502Z,1003.70
2022-09-13T09:17:33.530Z,1003.68
2022-09-13T09:18:33.499Z,1003.63
2022-09-13T09:19:33.501Z,1003.66
2022-09-13T09:20:33.454Z,1003.63
2022-09-13T09:21:33.442Z,1003.62
2022-09-13T09:22:33.435Z,1003.62
2022-09-13T09:23:33.458Z,1003.70
2022-09-13T09:24:33.404Z,1003.71
2022-09-13T09:25:33.398Z,1003.71
2022-09-13T09:26:33.417Z,1003.68
2022-09-13T09:27:33.373Z,1003.65
2022-09-13T09:28:33.406Z,1003.64
2022-09-13T09:29:33.363Z,1003.62
2022-09-13T09:30:33.503Z,1003.64
2022-09-13T09:31:33.381Z,1003.69
2022-09-13T09:32:33.345Z,1003.71
2022-09-13T09:33:33.328Z,1003.73
2022-09-13T09:34:33.325Z,1003.71
2022-09-13T09:35:33.316Z,1003.70
2022-09-13T09:36:33.273Z,1003.72
2022-09-13T09:37:33.294Z,1003.72
2022-09-13T09:38:33.242Z,1003.75
2022-09-13T09:39:33.289Z,1003.73
2022-09-13T09:40:33.329Z,1003.76
2022-09-13T09:41:33.233Z,1003.78
2022-09-13T09:42:33.223Z,1003.75
2022-09-13T09:43:33.203Z,1003.77
2022-09-13T09:44:33.221Z,1003.77
2022-09-13T09:45:33.197Z,1003.74
2022-09-13T09:46:33.268Z,1003.73
2022-09-13T09:47:33.213Z,1003.71
2022-09-13T09:48:33.165Z,1003.68
2022-09-13T09:49:33.150Z,1003.68
2022-09-13T09:50:33.128Z,1003.64
2022-09-13T09:51:33.133Z,1003.66
2022-09-13T09:52:33.101Z,1003.64
2022-09-13T09:53:36.799Z,1003.62
2022-09-13T09:54:33.081Z,1003.57
2022-09-13T09:55:33.112Z,1003.60
2022-09-13T09:56:33.051Z,1003.57
2022-09-13T09:57:33.073Z,1003.53
2022-09-13T09:58:33.074Z,1003.53
2022-09-13T09:59:33.044Z,1003.52
2022-09-13T10:00:33.056Z,1003.54
2022-09-13T10:01:33.050Z,1003.54
2022-09-13T10:02:33.041Z,1003.58
2022-09-13T10:03:33.027Z,1003.58
2022-09-13T10:04:32.983Z,1003.57
2022-09-13T10:05:32.981Z,1003.54
2022-09-13T10:06:33.020Z,1003.55
2022-09-13T10:07:32.984Z,1003.49
2022-09-13T10:08:32.940Z,1003.50
2022-09-13T10:09:33.004Z,1003.47
2022-09-13T10:10:32.910Z,1003.45
2022-09-13T10:11:32.909Z,1003.45
2022-09-13T10:12:33.341Z,1003.46
2022-09-13T10:13:32.880Z,1003.43
2022-09-13T10:14:32.853Z,1003.43
2022-09-13T10:15:32.863Z,1003.45
2022-09-13T10:16:32.925Z,1003.40
2022-09-13T10:17:32.905Z,1003.41
2022-09-13T10:18:43.997Z,1003.40
2022-09-13T10:19:33.813Z,1003.32
2022-09-13T10:20:32.820Z,1003.34
2022-09-13T10:21:33.621Z,1003.33
2022-09-13T10:22:33.024Z,1003.34
2022-09-13T10:23:32.918Z,1003.38
2022-09-13T10:24:32.798Z,1003.36
2022-09-13T10:25:32.783Z,1003.33
2022-09-13T10:26:32.729Z,1003.34
2022-09-13T10:27:32.720Z,1003.41
2022-09-13T10:28:32.722Z,1003.37
2022-09-13T10:29:32.814Z,1003.41
2022-09-13T10:30:32.747Z,1003.45
2022-09-13T10:31:32.747Z,1003.39
2022-09-13T10:32:32.669Z,1003.39
2022-09-13T10:33:32.672Z,1003.41
2022-09-13T10:34:32.639Z,1003.41
2022-09-13T10:35:32.638Z,1003.40
2022-09-13T10:36:51.515Z,1003.40
2022-09-13T10:37:33.665Z,1003.38
2022-09-13T10:38:32.662Z,1003.39
2022-09-13T10:39:32.640Z,1003.34
2022-09-13T10:40:32.582Z,1003.31
2022-09-13T10:41:32.573Z,1003.28
2022-09-13T10:42:32.570Z,1003.24
2022-09-13T10:43:32.562Z,1003.29
2022-09-13T10:44:32.542Z,1003.27
2022-09-13T10:45:32.553Z,1003.31
2022-09-13T10:46:32.540Z,1003.27
2022-09-13T10:47:32.523Z,1003.24
2022-09-13T10:48:32.493Z,1003.25
2022-09-13T10:49:32.493Z,1003.21
2022-09-13T10:50:32.517Z,1003.23
2022-09-13T10:51:32.471Z,1003.24
2022-09-13T10:52:32.501Z,1003.20
2022-09-13T10:53:32.439Z,1003.17
2022-09-13T10:54:32.441Z,1003.17
2022-09-13T10:55:32.448Z,1003.17
2022-09-13T10:56:32.419Z,1003.15
2022-09-13T10:57:32.426Z,1003.14
2022-09-13T10:58:32.423Z,1003.15
2022-09-13T10:59:32.408Z,1003.14
2022-09-13T11:00:33.152Z,1003.12
2022-09-13T11:01:34.080Z,1003.13
2022-09-13T11:02:32.405Z,1003.11
2022-09-13T11:03:32.346Z,1003.08
2022-09-13T11:04:32.414Z,1003.07
2022-09-13T11:05:32.363Z,1003.04
2022-09-13T11:06:32.347Z,1003.05
2022-09-13T11:07:32.301Z,1003.13
2022-09-13T11:08:32.282Z,1003.12
2022-09-13T11:09:32.299Z,1003.11
2022-09-13T11:10:32.248Z,1003.08
2022-09-13T11:11:32.260Z,1003.10
2022-09-13T11:12:32.316Z,1003.09
2022-09-13T11:13:32.218Z,1003.17
2022-09-13T11:14:32.248Z,1003.20
2022-09-13T11:15:32.226Z,1003.20
2022-09-13T11:16:32.235Z,1003.18
2022-09-13T11:17:32.673Z,1003.15
2022-09-13T11:18:32.179Z,1003.11
2022-09-13T11:19:32.156Z,1003.10
2022-09-13T11:20:32.172Z,1003.09
2022-09-13T11:21:32.128Z,1003.10
2022-09-13T11:22:32.126Z,1003.08
2022-09-13T11:23:32.124Z,1003.09
2022-09-13T11:24:32.123Z,1003.08
2022-09-13T11:25:32.122Z,1003.07
2022-09-13T11:26:35.008Z,1003.07
2022-09-13T11:27:33.070Z,1003.07
2022-09-13T11:28:32.089Z,1003.07
2022-09-13T11:29:32.046Z,1003.10
2022-09-13T11:30:32.036Z,1003.16
2022-09-13T11:31:32.124Z,1003.16
2022-09-13T11:32:32.033Z,1003.13
2022-09-13T11:33:32.030Z,1003.09
2022-09-13T11:34:32.009Z,1003.15
2022-09-13T11:35:32.140Z,1003.13
2022-09-13T11:36:32.059Z,1003.07
2022-09-13T11:37:31.972Z,1003.05
2022-09-13T11:38:31.989Z,1003.09
2022-09-13T11:39:31.968Z,1003.03
2022-09-13T11:40:31.946Z,1003.03
2022-09-13T11:41:31.937Z,1003.03
2022-09-13T11:42:31.939Z,1003.07
2022-09-13T11:43:32.003Z,1003.06
2022-09-13T11:44:31.917Z,1003.08
2022-09-13T11:45:31.955Z,1003.07
2022-09-13T11:46:31.960Z,1003.08
2022-09-13T11:47:31.933Z,1003.06
2022-09-13T11:48:31.852Z,1003.06
2022-09-13T11:49:31.849Z,1003.11
2022-09-13T11:50:31.924Z,1003.11
2022-09-13T11:51:31.850Z,1003.13
2022-09-13T11:52:31.849Z,1003.14
2022-09-13T11:53:31.795Z,1003.18
2022-09-13T11:54:31.851Z,1003.16
2022-09-13T11:55:31.778Z,1003.19
2022-09-13T11:56:31.765Z,1003.17
2022-09-13T11:57:31.878Z,1003.16
2022-09-13T11:58:31.771Z,1003.17
2022-09-13T11:59:31.735Z,1003.10
2022-09-13T12:00:31.729Z,1003.15
2022-09-13T12:01:31.745Z,1003.11
2022-09-13T12:02:31.795Z,1003.10
2022-09-13T12:03:31.823Z,1003.09
2022-09-13T12:04:33.776Z,1003.09
2022-09-13T12:05:31.668Z,1003.07